地図

経路データ

SID SEASON NUMBER BASIN SUBBASIN NAME ISO_TIME NATURE LAT LON WMO_WIND WMO_PRES WMO_AGENCY TRACK_TYPE DIST2LAND LANDFALL IFLAG USA_AGENCY USA_ATCF_ID USA_LAT USA_LON USA_RECORD USA_STATUS USA_WIND USA_PRES USA_SSHS USA_R34_NE USA_R34_SE USA_R34_SW USA_R34_NW USA_R50_NE USA_R50_SE USA_R50_SW USA_R50_NW USA_R64_NE USA_R64_SE USA_R64_SW USA_R64_NW USA_POCI USA_ROCI USA_RMW USA_EYE TOKYO_LAT TOKYO_LON TOKYO_GRADE TOKYO_WIND TOKYO_PRES TOKYO_R50_DIR TOKYO_R50_LONG TOKYO_R50_SHORT TOKYO_R30_DIR TOKYO_R30_LONG TOKYO_R30_SHORT TOKYO_LAND CMA_LAT CMA_LON CMA_CAT CMA_WIND CMA_PRES HKO_LAT HKO_LON HKO_CAT HKO_WIND HKO_PRES NEWDELHI_LAT NEWDELHI_LON NEWDELHI_GRADE NEWDELHI_WIND NEWDELHI_PRES NEWDELHI_CI NEWDELHI_DP NEWDELHI_POCI REUNION_LAT REUNION_LON REUNION_TYPE REUNION_WIND REUNION_PRES REUNION_TNUM REUNION_CI REUNION_RMW REUNION_R34_NE REUNION_R34_SE REUNION_R34_SW REUNION_R34_NW REUNION_R50_NE REUNION_R50_SE REUNION_R50_SW REUNION_R50_NW REUNION_R64_NE REUNION_R64_SE REUNION_R64_SW REUNION_R64_NW BOM_LAT BOM_LON BOM_TYPE BOM_WIND BOM_PRES BOM_TNUM BOM_CI BOM_RMW BOM_R34_NE BOM_R34_SE BOM_R34_SW BOM_R34_NW BOM_R50_NE BOM_R50_SE BOM_R50_SW BOM_R50_NW BOM_R64_NE BOM_R64_SE BOM_R64_SW BOM_R64_NW BOM_ROCI BOM_POCI BOM_EYE BOM_POS_METHOD BOM_PRES_METHOD NADI_LAT NADI_LON NADI_CAT NADI_WIND NADI_PRES WELLINGTON_LAT WELLINGTON_LON WELLINGTON_WIND WELLINGTON_PRES DS824_LAT DS824_LON DS824_STAGE DS824_WIND DS824_PRES TD9636_LAT TD9636_LON TD9636_STAGE TD9636_WIND TD9636_PRES TD9635_LAT TD9635_LON TD9635_WIND TD9635_PRES TD9635_ROCI NEUMANN_LAT NEUMANN_LON NEUMANN_CLASS NEUMANN_WIND NEUMANN_PRES MLC_LAT MLC_LON MLC_CLASS MLC_WIND MLC_PRES USA_GUST BOM_GUST BOM_GUST_PER REUNION_GUST REUNION_GUST_PER USA_SEAHGT USA_SEARAD_NE USA_SEARAD_SE USA_SEARAD_SW USA_SEARAD_NW STORM_SPEED STORM_DIR
1890271N15125 1890 31 WP MM NOT_NAMED 1890-09-27 16:00:00 NR 14.6000 125.200 main 116 108 __________O___ -1 14.6000 125.200 7 5 289
1890271N15125 1890 31 WP MM NOT_NAMED 1890-09-27 18:00:00 NR 14.6556 125.036 main 108 95 __________P___ -1 14.6556 125.036 7 5 289
1890271N15125 1890 31 WP MM NOT_NAMED 1890-09-27 21:00:00 NR 14.7367 124.788 main 95 89 __________P___ -1 14.7367 124.788 7 5 288
1890271N15125 1890 31 WP MM NOT_NAMED 1890-09-28 00:00:00 NR 14.8125 124.538 main 92 90 __________P___ -1 14.8125 124.538 7 5 286
1890271N15125 1890 31 WP MM NOT_NAMED 1890-09-28 03:00:00 NR 14.8799 124.285 main 100 100 __________P___ -1 14.8799 124.285 7 5 285
1890271N15125 1890 31 WP MM NOT_NAMED 1890-09-28 04:00:00 NR 14.9000 124.200 main 100 100 __________O___ -1 14.9000 124.200 3 5 283
1890271N15125 1890 31 WP MM NOT_NAMED 1890-09-28 06:00:00 NR 14.9363 124.028 main 101 101 __________P___ -1 14.9363 124.028 3 5 281
1890271N15125 1890 31 WP MM NOT_NAMED 1890-09-28 09:00:00 NR 14.9845 123.763 main 116 110 __________P___ -1 14.9845 123.763 3 5 280
1890271N15125 1890 31 WP MM NOT_NAMED 1890-09-28 12:00:00 NR 15.0307 123.488 main 110 104 __________P___ -1 15.0307 123.488 3 6 280
1890271N15125 1890 31 WP MM NOT_NAMED 1890-09-28 15:00:00 NR 15.0811 123.200 main 105 103 __________P___ -1 15.0811 123.200 3 6 280
1890271N15125 1890 31 WP MM NOT_NAMED 1890-09-28 16:00:00 NR 15.1000 123.100 main 103 100 __________O___ -1 15.1000 123.100 4 6 282
1890271N15125 1890 31 WP MM NOT_NAMED 1890-09-28 18:00:00 NR 15.1470 122.887 main 100 110 __________P___ -1 15.1470 122.887 4 6 283
1890271N15125 1890 31 WP MM NOT_NAMED 1890-09-28 21:00:00 NR 15.2238 122.555 main 110 78 __________P___ -1 15.2238 122.555 4 7 284
1890271N15125 1890 31 WP MM NOT_NAMED 1890-09-29 00:00:00 NR 15.3026 122.221 main 78 44 __________P___ -1 15.3026 122.221 4 6 284
1890271N15125 1890 31 WP MM NOT_NAMED 1890-09-29 03:00:00 NR 15.3771 121.901 main 44 34 __________P___ -1 15.3771 121.901 4 6 284
1890271N15125 1890 31 WP MM NOT_NAMED 1890-09-29 04:00:00 NR 15.4000 121.800 main 34 15 __________O___ -1 15.4000 121.800 4 6 282
1890271N15125 1890 31 WP MM NOT_NAMED 1890-09-29 06:00:00 NR 15.4363 121.616 main 15 0 __________P___ -1 15.4363 121.616 4 5 281
1890271N15125 1890 31 WP MM NOT_NAMED 1890-09-29 09:00:00 NR 15.4844 121.359 main 0 0 __________P___ -1 15.4844 121.359 4 5 281
1890271N15125 1890 31 WP MM NOT_NAMED 1890-09-29 12:00:00 NR 15.5306 121.117 main 0 0 __________P___ -1 15.5306 121.117 4 5 282
1890271N15125 1890 31 WP MM NOT_NAMED 1890-09-29 15:00:00 NR 15.5811 120.880 main 0 0 __________P___ -1 15.5811 120.880 4 5 283
1890271N15125 1890 31 WP MM NOT_NAMED 1890-09-29 16:00:00 NR 15.6000 120.800 main 0 0 __________O___ -1 15.6000 120.800 4 5 285
1890271N15125 1890 31 WP MM NOT_NAMED 1890-09-29 18:00:00 NR 15.6469 120.628 main 0 0 __________P___ -1 15.6469 120.628 4 5 287
1890271N15125 1890 31 WP MM NOT_NAMED 1890-09-29 21:00:00 NR 15.7236 120.370 main 0 0 __________P___ -1 15.7236 120.370 4 5 288
1890271N15125 1890 31 WP MM NOT_NAMED 1890-09-30 00:00:00 NR 15.8025 120.118 main 0 0 __________P___ -1 15.8025 120.118 4 5 288
1890271N15125 1890 31 WP MM NOT_NAMED 1890-09-30 03:00:00 NR 15.8771 119.877 main 0 0 __________P___ -1 15.8771 119.877 4 5 288
1890271N15125 1890 31 WP MM NOT_NAMED 1890-09-30 04:00:00 NR 15.9000 119.800 main 0 0 __________O___ -1 15.9000 119.800 4 4 287
1890271N15125 1890 31 WP MM NOT_NAMED 1890-09-30 06:00:00 NR 15.9389 119.660 main 10 10 __________P___ -1 15.9389 119.660 4 4 286
1890271N15125 1890 31 WP MM NOT_NAMED 1890-09-30 09:00:00 NR 15.9911 119.464 main 21 21 __________P___ -1 15.9911 119.464 4 4 285
1890271N15125 1890 31 WP MM NOT_NAMED 1890-09-30 12:00:00 NR 16.0385 119.271 main 42 42 __________P___ -1 16.0385 119.271 4 4 284
1890271N15125 1890 31 WP MM NOT_NAMED 1890-09-30 15:00:00 NR 16.0845 119.071 main 65 65 __________P___ -1 16.0845 119.071 4 4 283
1890271N15125 1890 31 WP MM NOT_NAMED 1890-09-30 16:00:00 NR 16.1000 119.000 main 75 75 __________O___ -1 16.1000 119.000 4 4 282
1890271N15125 1890 31 WP MM NOT_NAMED 1890-09-30 18:00:00 NR 16.1307 118.842 main 96 96 __________P___ -1 16.1307 118.842 4 5 281
1890271N15125 1890 31 WP MM NOT_NAMED 1890-09-30 21:00:00 NR 16.1767 118.593 main 119 119 __________P___ -1 16.1767 118.593 4 5 281
1890271N15125 1890 31 WP MM NOT_NAMED 1890-10-01 00:00:00 NR 16.2255 118.336 main 151 151 __________P___ -1 16.2255 118.336 4 5 282
1890271N15125 1890 31 WP MM NOT_NAMED 1890-10-01 03:00:00 NR 16.2800 118.082 main 174 174 __________P___ -1 16.2800 118.082 4 5 283
1890271N15125 1890 31 WP MM NOT_NAMED 1890-10-01 04:00:00 NR 16.3000 118.000 main 184 184 __________O___ -1 16.3000 118.000 4 5 287
1890271N15125 1890 31 WP MM NOT_NAMED 1890-10-01 06:00:00 NR 16.3494 117.850 main 205 207 __________P___ -1 16.3494 117.850 4 5 290
1890271N15125 1890 31 WP MM NOT_NAMED 1890-10-01 09:00:00 NR 16.4300 117.630 main 228 228 __________P___ -1 16.4300 117.630 4 5 291
1890271N15125 1890 31 WP MM NOT_NAMED 1890-10-01 12:00:00 NR 16.5101 117.410 main 251 251 __________P___ -1 16.5101 117.410 4 5 289
1890271N15125 1890 31 WP MM NOT_NAMED 1890-10-01 15:00:00 NR 16.5804 117.180 main 275 275 __________P___ -1 16.5804 117.180 4 5 287
1890271N15125 1890 31 WP MM NOT_NAMED 1890-10-01 16:00:00 NR 16.6000 117.100 main 285 285 __________O___ -1 16.6000 117.100 4 5 281
1890271N15125 1890 31 WP MM NOT_NAMED 1890-10-01 18:00:00 NR 16.6308 116.910 main 306 306 __________P___ -1 16.6308 116.910 4 6 278
1890271N15125 1890 31 WP MM NOT_NAMED 1890-10-01 21:00:00 NR 16.6645 116.611 main 340 340 __________P___ -1 16.6645 116.611 4 6 276
1890271N15125 1890 31 WP MM NOT_NAMED 1890-10-02 00:00:00 NR 16.6857 116.322 main 371 371 __________P___ -1 16.6857 116.322 4 5 274
1890271N15125 1890 31 WP MM NOT_NAMED 1890-10-02 03:00:00 NR 16.6976 116.071 main 392 392 __________P___ -1 16.6976 116.071 4 5 273
1890271N15125 1890 31 WP MM NOT_NAMED 1890-10-02 04:00:00 NR 16.7000 116.000 main 402 402 __________O___ -1 16.7000 116.000 7 4 273
1890271N15125 1890 31 WP MM NOT_NAMED 1890-10-02 06:00:00 NR 16.7056 115.888 main 413 413 __________P___ -1 16.7056 115.888 7 3 272
1890271N15125 1890 31 WP MM NOT_NAMED 1890-10-02 09:00:00 NR 16.7077 115.764 main 423 423 __________P___ -1 16.7077 115.764 7 2 270
1890271N15125 1890 31 WP MM NOT_NAMED 1890-10-02 12:00:00 NR 16.7053 115.679 main 434 434 __________P___ -1 16.7053 115.679 7 1 267
1890271N15125 1890 31 WP MM NOT_NAMED 1890-10-02 15:00:00 NR 16.7012 115.618 main 444 444 __________P___ -1 16.7012 115.618 7 1 266
1890271N15125 1890 31 WP MM NOT_NAMED 1890-10-02 16:00:00 NR 16.7000 115.600 main 444 444 __________O___ -1 16.7000 115.600 7 1 271
1890271N15125 1890 31 WP MM NOT_NAMED 1890-10-02 18:00:00 NR 16.7026 115.561 main 444 444 __________P___ -1 16.7026 115.561 7 1 275
1890271N15125 1890 31 WP MM NOT_NAMED 1890-10-02 21:00:00 NR 16.7066 115.514 main 455 455 __________P___ -1 16.7066 115.514 7 1 273
1890271N15125 1890 31 WP MM NOT_NAMED 1890-10-03 00:00:00 NR 16.7078 115.472 main 455 455 __________P___ -1 16.7078 115.472 7 1 268
1890271N15125 1890 31 WP MM NOT_NAMED 1890-10-03 03:00:00 NR 16.7033 115.421 main 465 465 __________P___ -1 16.7033 115.421 7 1 263
1890271N15125 1890 31 WP MM NOT_NAMED 1890-10-03 04:00:00 NR 16.7000 115.400 main 465 465 __________O___ -1 16.7000 115.400 7 1 258
1890271N15125 1890 31 WP MM NOT_NAMED 1890-10-03 06:00:00 NR 16.6891 115.345 main 476 476 __________P___ -1 16.6891 115.345 7 2 257
1890271N15125 1890 31 WP MM NOT_NAMED 1890-10-03 09:00:00 NR 16.6663 115.249 main 486 485 __________P___ -1 16.6663 115.249 7 2 256
1890271N15125 1890 31 WP MM NOT_NAMED 1890-10-03 12:00:00 NR 16.6388 115.144 main 495 495 __________P___ -1 16.6388 115.144 7 2 255
1890271N15125 1890 31 WP MM NOT_NAMED 1890-10-03 15:00:00 NR 16.6096 115.036 main 506 506 __________P___ -1 16.6096 115.036 7 2 254
1890271N15125 1890 31 WP MM NOT_NAMED 1890-10-03 16:00:00 NR 16.6000 115.000 main 506 506 __________O___ -1 16.6000 115.000 7 2 254
1890271N15125 1890 31 WP MM NOT_NAMED 1890-10-03 18:00:00 NR 16.5807 114.931 main 516 516 __________P___ -1 16.5807 114.931 7 2 254
1890271N15125 1890 31 WP MM NOT_NAMED 1890-10-03 21:00:00 NR 16.5517 114.827 main 517 514 __________P___ -1 16.5517 114.827 7 2 254
1890271N15125 1890 31 WP MM NOT_NAMED 1890-10-04 00:00:00 NR 16.5254 114.725 main 514 504 __________P___ -1 16.5254 114.725 7 2 256
1890271N15125 1890 31 WP MM NOT_NAMED 1890-10-04 03:00:00 NR 16.5050 114.630 main 504 504 __________P___ -1 16.5050 114.630 7 2 258
1890271N15125 1890 31 WP MM NOT_NAMED 1890-10-04 04:00:00 NR 16.5000 114.600 main 504 495 __________O___ -1 16.5000 114.600 7 2 264
1890271N15125 1890 31 WP MM NOT_NAMED 1890-10-04 06:00:00 NR 16.4969 114.544 main 495 495 __________P___ -1 16.4969 114.544 7 2 269
1890271N15125 1890 31 WP MM NOT_NAMED 1890-10-04 09:00:00 NR 16.4986 114.467 main 495 486 __________P___ -1 16.4986 114.467 7 1 272
1890271N15125 1890 31 WP MM NOT_NAMED 1890-10-04 12:00:00 NR 16.5024 114.395 main 486 477 __________P___ -1 16.5024 114.395 7 1 271
1890271N15125 1890 31 WP MM NOT_NAMED 1890-10-04 15:00:00 NR 16.5021 114.324 main 477 477 __________P___ -1 16.5021 114.324 7 1 268
1890271N15125 1890 31 WP MM NOT_NAMED 1890-10-04 16:00:00 NR 16.5000 114.300 main 477 477 __________O___ -1 16.5000 114.300 7 1 263
1890271N15125 1890 31 WP MM NOT_NAMED 1890-10-04 18:00:00 NR 16.4943 114.250 main 477 469 __________P___ -1 16.4943 114.250 7 1 260
1890271N15125 1890 31 WP MM NOT_NAMED 1890-10-04 21:00:00 NR 16.4795 114.175 main 469 460 __________P___ -1 16.4795 114.175 7 1 254
1890271N15125 1890 31 WP MM NOT_NAMED 1890-10-05 00:00:00 NR 16.4546 114.100 main 460 457 __________P___ -1 16.4546 114.100 7 2 246
1890271N15125 1890 31 WP MM NOT_NAMED 1890-10-05 03:00:00 NR 16.4163 114.025 main 457 457 __________P___ -1 16.4163 114.025 7 2 241
1890271N15125 1890 31 WP MM NOT_NAMED 1890-10-05 04:00:00 NR 16.4000 114.000 main 457 449 __________O___ -1 16.4000 114.000 7 2 237
1890271N15125 1890 31 WP MM NOT_NAMED 1890-10-05 06:00:00 NR 16.3640 113.947 main 449 449 __________P___ -1 16.3640 113.947 7 2 231
1890271N15125 1890 31 WP MM NOT_NAMED 1890-10-05 09:00:00 NR 16.2976 113.868 main 456 447 __________P___ -1 16.2976 113.868 7 2 225
1890271N15125 1890 31 WP MM NOT_NAMED 1890-10-05 12:00:00 NR 16.2188 113.792 main 455 447 __________P___ -1 16.2188 113.792 7 2 221
1890271N15125 1890 31 WP MM NOT_NAMED 1890-10-05 15:00:00 NR 16.1308 113.722 main 454 454 __________P___ -1 16.1308 113.722 7 2 217
1890271N15125 1890 31 WP MM NOT_NAMED 1890-10-05 16:00:00 NR 16.1000 113.700 main 454 454 __________O___ -1 16.1000 113.700 7 2 205
1890271N15125 1890 31 WP MM NOT_NAMED 1890-10-05 18:00:00 NR 16.0363 113.687 main 462 462 __________P___ -1 16.0363 113.687 7 2 189
1890271N15125 1890 31 WP MM NOT_NAMED 1890-10-05 21:00:00 NR 15.9344 113.675 main 469 469 __________P___ -1 15.9344 113.675 7 2 191
1890271N15125 1890 31 WP MM NOT_NAMED 1890-10-06 00:00:00 NR 15.8306 113.640 main 469 469 __________P___ -1 15.8306 113.640 7 2 210
1890271N15125 1890 31 WP MM NOT_NAMED 1890-10-06 03:00:00 NR 15.7311 113.549 main 470 470 __________P___ -1 15.7311 113.549 7 3 227
1890271N15125 1890 31 WP MM NOT_NAMED 1890-10-06 04:00:00 NR 15.7000 113.500 main 470 462 __________O___ -1 15.7000 113.500 7 4 241
1890271N15125 1890 31 WP MM NOT_NAMED 1890-10-06 06:00:00 NR 15.6287 113.360 main 471 438 __________P___ -1 15.6287 113.360 7 5 247
1890271N15125 1890 31 WP MM NOT_NAMED 1890-10-06 09:00:00 NR 15.5275 113.086 main 438 405 __________P___ -1 15.5275 113.086 7 6 253
1890271N15125 1890 31 WP MM NOT_NAMED 1890-10-06 12:00:00 NR 15.4473 112.762 main 405 363 __________P___ -1 15.4473 112.762 7 7 259
1890271N15125 1890 31 WP MM NOT_NAMED 1890-10-06 15:00:00 NR 15.4037 112.416 main 363 352 __________P___ -1 15.4037 112.416 7 7 264
1890271N15125 1890 31 WP MM NOT_NAMED 1890-10-06 16:00:00 NR 15.4000 112.300 main 352 331 __________O___ -1 15.4000 112.300 7 6 275
1890271N15125 1890 31 WP MM NOT_NAMED 1890-10-06 18:00:00 NR 15.4314 112.092 main 331 303 __________P___ -1 15.4314 112.092 7 6 283
1890271N15125 1890 31 WP MM NOT_NAMED 1890-10-06 21:00:00 NR 15.5167 111.774 main 303 266 __________P___ -1 15.5167 111.774 7 6 286
1890271N15125 1890 31 WP MM NOT_NAMED 1890-10-07 00:00:00 NR 15.6146 111.447 main 266 242 __________P___ -1 15.6146 111.447 7 7 285
1890271N15125 1890 31 WP MM NOT_NAMED 1890-10-07 03:00:00 NR 15.6877 111.113 main 242 232 __________P___ -1 15.6877 111.113 7 7 281
1890271N15125 1890 31 WP MM NOT_NAMED 1890-10-07 04:00:00 NR 15.7000 111.000 main 232 211 __________O___ -1 15.7000 111.000 7 7 270
1890271N15125 1890 31 WP MM NOT_NAMED 1890-10-07 06:00:00 NR 15.6895 110.767 main 211 166 __________P___ -1 15.6895 110.767 7 7 264
1890271N15125 1890 31 WP MM NOT_NAMED 1890-10-07 09:00:00 NR 15.6360 110.411 main 166 133 __________P___ -1 15.6360 110.411 7 7 258
1890271N15125 1890 31 WP MM NOT_NAMED 1890-10-07 12:00:00 NR 15.5484 110.056 main 133 88 __________P___ -1 15.5484 110.056 7 7 254
1890271N15125 1890 31 WP MM NOT_NAMED 1890-10-07 15:00:00 NR 15.4391 109.711 main 88 78 __________P___ -1 15.4391 109.711 7 7 251
1890271N15125 1890 31 WP MM NOT_NAMED 1890-10-07 16:00:00 NR 15.4000 109.600 main 78 54 __________O___ -1 15.4000 109.600 7 7 249
1890271N15125 1890 31 WP MM NOT_NAMED 1890-10-07 18:00:00 NR 15.3201 109.385 main 54 21 __________P___ -1 15.3201 109.385 7 7 248
1890271N15125 1890 31 WP MM NOT_NAMED 1890-10-07 21:00:00 NR 15.1969 109.077 main 21 0 __________P___ -1 15.1969 109.077 7 6 247
1890271N15125 1890 31 WP MM NOT_NAMED 1890-10-08 00:00:00 NR 15.0708 108.782 main 0 0 __________P___ -1 15.0708 108.782 7 6 246
1890271N15125 1890 31 WP MM NOT_NAMED 1890-10-08 03:00:00 NR 14.9429 108.495 main 0 0 __________P___ -1 14.9429 108.495 7 6 245
1890271N15125 1890 31 WP MM NOT_NAMED 1890-10-08 04:00:00 NR 14.9000 108.400 main 0 __________O___ -1 14.9000 108.400 7 6 244

デジタル台風データ・検索

IBTrACS Databaseについて

本データベースは、米国NOAAが公開する1842年以降の世界の熱帯低気圧のベストトラックデータアーカイブInternational Best Track Archive for Climate Stewardship (IBTrACS)を、ウェブで閲覧しやすい形式に変換したものです。

最終更新日:2021-11-26